createdAt,value
2022-11-25T00:00:50.468Z,2.22
2022-11-25T00:03:18.403Z,1.83
2022-11-25T00:05:47.660Z,1.92
2022-11-25T00:08:15.469Z,1.73
2022-11-25T00:10:43.255Z,1.42
2022-11-25T00:13:11.055Z,1.52
2022-11-25T00:15:38.854Z,1.90
2022-11-25T00:18:06.680Z,1.35
2022-11-25T00:20:34.469Z,1.95
2022-11-25T00:23:03.651Z,1.42
2022-11-25T00:25:31.452Z,1.65
2022-11-25T00:27:59.243Z,1.55
2022-11-25T00:30:27.047Z,2.15
2022-11-25T00:32:54.913Z,2.20
2022-11-25T00:35:22.796Z,1.30
2022-11-25T00:37:50.601Z,1.75
2022-11-25T00:40:20.174Z,1.80
2022-11-25T00:43:01.817Z,2.08
2022-11-25T00:45:29.692Z,1.95
2022-11-25T00:47:57.525Z,1.83
2022-11-25T00:50:25.438Z,1.95
2022-11-25T00:52:53.215Z,2.08
2022-11-25T00:55:22.389Z,1.88
2022-11-25T00:57:50.188Z,1.88
2022-11-25T01:00:18.367Z,1.90
2022-11-25T01:02:46.223Z,1.60
2022-11-25T01:05:14.085Z,1.77
2022-11-25T01:07:42.035Z,1.60
2022-11-25T01:10:10.647Z,1.67
2022-11-25T01:12:39.856Z,2.10
2022-11-25T01:15:09.135Z,1.90
2022-11-25T01:17:36.928Z,1.93
2022-11-25T01:20:05.326Z,2.00
2022-11-25T01:22:33.136Z,1.80
2022-11-25T01:25:00.912Z,2.53
2022-11-25T01:27:28.924Z,2.35
2022-11-25T01:29:58.381Z,2.15
2022-11-25T01:32:26.185Z,2.50
2022-11-25T01:34:53.985Z,2.42
2022-11-25T01:37:21.795Z,1.70
2022-11-25T01:39:49.645Z,2.42
2022-11-25T01:42:18.940Z,2.17
2022-11-25T01:45:19.960Z,2.07
2022-11-25T01:47:50.047Z,2.00
2022-11-25T01:50:24.646Z,2.00
2022-11-25T01:52:55.090Z,2.00
2022-11-25T01:55:26.971Z,2.20
2022-11-25T01:58:00.130Z,2.30
2022-11-25T02:00:28.656Z,1.83
2022-11-25T02:03:00.145Z,2.40
2022-11-25T02:05:37.418Z,1.98
2022-11-25T02:08:07.955Z,2.28
2022-11-25T02:10:36.864Z,2.15
2022-11-25T02:13:05.335Z,2.38
2022-11-25T02:15:35.979Z,2.17
2022-11-25T02:18:06.139Z,2.22
2022-11-25T02:23:10.553Z,2.25
2022-11-25T02:25:42.688Z,2.22
2022-11-25T02:28:13.896Z,2.53
2022-11-25T02:30:43.382Z,1.90
2022-11-25T02:33:12.597Z,2.25
2022-11-25T02:35:42.357Z,2.27
2022-11-25T02:38:13.459Z,2.28
2022-11-25T02:40:48.879Z,2.13
2022-11-25T02:43:18.043Z,2.28
2022-11-25T02:45:51.893Z,2.17
2022-11-25T02:48:26.566Z,1.88
2022-11-25T02:51:02.878Z,1.85
2022-11-25T02:53:30.803Z,2.20
2022-11-25T02:56:00.272Z,2.00
2022-11-25T02:58:28.236Z,1.75
2022-11-25T03:00:56.110Z,1.85
2022-11-25T03:03:24.184Z,2.15
2022-11-25T03:05:52.098Z,1.75
2022-11-25T03:08:19.906Z,2.08
2022-11-25T03:10:47.714Z,1.77
2022-11-25T03:13:16.909Z,1.98
2022-11-25T03:15:44.763Z,2.23
2022-11-25T03:18:12.563Z,1.70
2022-11-25T03:20:40.383Z,2.33
2022-11-25T03:23:08.757Z,2.10
2022-11-25T03:25:37.339Z,2.00
2022-11-25T03:28:05.720Z,2.30
2022-11-25T03:30:36.148Z,2.20
2022-11-25T03:33:04.251Z,2.10
2022-11-25T03:35:32.103Z,1.92
2022-11-25T03:37:59.883Z,2.17
2022-11-25T03:40:27.789Z,2.08
2022-11-25T03:42:55.593Z,2.22
2022-11-25T03:45:23.482Z,1.85
2022-11-25T03:47:52.675Z,1.80
2022-11-25T03:50:20.527Z,1.40
2022-11-25T03:52:48.362Z,2.03
2022-11-25T03:55:16.822Z,1.50
2022-11-25T03:57:44.697Z,1.85
2022-11-25T04:00:13.769Z,1.88
2022-11-25T04:02:41.703Z,1.60
2022-11-25T04:05:11.310Z,2.17
2022-11-25T04:07:39.510Z,2.22
2022-11-25T04:10:08.984Z,1.98
2022-11-25T04:12:48.858Z,2.00
2022-11-25T04:15:17.789Z,1.85
2022-11-25T04:17:45.853Z,1.75
2022-11-25T04:20:15.943Z,2.25
2022-11-25T04:25:11.848Z,2.42
2022-11-25T04:27:39.713Z,2.15
2022-11-25T04:30:09.117Z,1.70
2022-11-25T04:32:37.940Z,2.38
2022-11-25T04:35:06.678Z,1.85
2022-11-25T04:37:35.935Z,1.77
2022-11-25T04:40:03.932Z,1.70
2022-11-25T04:42:36.489Z,2.20
2022-11-25T04:45:23.083Z,2.45
2022-11-25T04:47:51.747Z,2.20
2022-11-25T04:50:21.171Z,2.45
2022-11-25T04:52:50.395Z,4.00
2022-11-25T04:55:18.230Z,2.27
2022-11-25T04:57:46.079Z,2.20
2022-11-25T05:00:13.884Z,2.45
2022-11-25T05:02:41.893Z,2.40
2022-11-25T05:05:10.102Z,2.40
2022-11-25T05:07:38.681Z,2.28
2022-11-25T05:10:09.584Z,2.10
2022-11-25T05:12:37.928Z,1.90
2022-11-25T05:15:06.530Z,2.80
2022-11-25T05:17:34.392Z,2.38
2022-11-25T05:20:02.640Z,2.70
2022-11-25T05:22:32.866Z,2.38
2022-11-25T05:25:01.081Z,2.28
2022-11-25T05:27:30.332Z,2.40
2022-11-25T05:29:58.189Z,2.23
2022-11-25T05:32:28.776Z,1.70
2022-11-25T05:34:56.572Z,2.22
2022-11-25T05:37:24.778Z,2.17
2022-11-25T05:39:53.091Z,1.63
2022-11-25T05:42:20.900Z,1.88
2022-11-25T05:44:50.198Z,2.35
2022-11-25T05:47:18.004Z,2.30
2022-11-25T05:49:45.834Z,1.95
2022-11-25T05:52:13.630Z,2.20
2022-11-25T05:54:41.432Z,1.80
2022-11-25T05:57:09.268Z,2.40
2022-11-25T05:59:37.215Z,2.13
2022-11-25T06:02:06.491Z,2.60
2022-11-25T06:04:34.627Z,3.00
2022-11-25T06:07:03.159Z,2.05
2022-11-25T06:09:30.964Z,2.38
2022-11-25T06:11:58.776Z,2.38
2022-11-25T06:14:26.591Z,2.08
2022-11-25T06:16:54.457Z,1.83
2022-11-25T06:19:23.671Z,2.08
2022-11-25T06:21:51.576Z,2.53
2022-11-25T06:24:19.424Z,2.50
2022-11-25T06:26:47.420Z,2.08
2022-11-25T06:29:15.347Z,2.17
2022-11-25T06:31:43.176Z,1.95
2022-11-25T06:34:11.176Z,2.65
2022-11-25T06:36:40.368Z,4.35
2022-11-25T06:39:08.496Z,4.43
2022-11-25T06:41:36.304Z,4.75
2022-11-25T06:44:04.127Z,4.18
2022-11-25T06:46:32.282Z,3.28
2022-11-25T06:49:00.461Z,2.40
2022-11-25T06:51:28.320Z,2.60
2022-11-25T06:53:57.745Z,2.38
2022-11-25T06:56:27.568Z,2.63
2022-11-25T06:58:56.269Z,3.35
2022-11-25T07:01:26.145Z,2.75
2022-11-25T07:03:56.428Z,2.78
2022-11-25T07:08:52.576Z,2.80
2022-11-25T07:11:24.556Z,2.30
2022-11-25T07:13:54.368Z,2.65
2022-11-25T07:16:22.509Z,2.80
2022-11-25T07:18:50.398Z,2.40
2022-11-25T07:21:21.199Z,3.03
2022-11-25T07:23:49.431Z,2.80
2022-11-25T07:26:19.372Z,2.50
2022-11-25T07:28:49.651Z,1.92
2022-11-25T07:34:00.810Z,2.35
2022-11-25T07:36:29.866Z,2.28
2022-11-25T07:38:59.178Z,2.78
2022-11-25T07:41:28.386Z,2.58
2022-11-25T07:43:59.061Z,2.50
2022-11-25T07:46:30.721Z,2.45
2022-11-25T07:49:00.693Z,2.28
2022-11-25T07:51:31.839Z,2.30
2022-11-25T07:54:01.063Z,2.97
2022-11-25T07:56:30.098Z,3.13
2022-11-25T07:58:59.288Z,2.85
2022-11-25T08:01:27.430Z,2.23
2022-11-25T08:03:55.929Z,2.92
2022-11-25T08:06:25.352Z,2.50
2022-11-25T08:08:55.615Z,3.05
2022-11-25T08:11:25.870Z,3.00
2022-11-25T08:13:53.893Z,2.80
2022-11-25T08:16:27.719Z,2.88
2022-11-25T08:18:56.200Z,3.53
2022-11-25T08:21:24.178Z,2.95
2022-11-25T08:23:52.634Z,2.90
2022-11-25T08:26:23.391Z,3.70
2022-11-25T08:28:51.816Z,2.85
2022-11-25T08:31:22.181Z,2.88
2022-11-25T08:33:51.842Z,3.10
2022-11-25T08:36:20.529Z,2.90
2022-11-25T08:38:50.116Z,3.22
2022-11-25T08:41:21.632Z,2.78
2022-11-25T08:43:49.993Z,3.67
2022-11-25T08:46:19.781Z,3.17
2022-11-25T08:48:47.894Z,3.22
2022-11-25T08:51:19.552Z,3.25
2022-11-25T08:53:48.160Z,4.35
2022-11-25T08:56:16.213Z,4.82
2022-11-25T08:58:44.173Z,4.60
2022-11-25T09:01:14.361Z,4.22
2022-11-25T09:03:44.796Z,4.60
2022-11-25T09:06:13.681Z,3.83
2022-11-25T09:08:44.564Z,4.05
2022-11-25T09:11:12.637Z,3.58
2022-11-25T09:13:40.959Z,3.50
2022-11-25T09:16:09.682Z,3.22
2022-11-25T09:18:38.164Z,3.45
2022-11-25T09:21:10.886Z,4.00
2022-11-25T09:23:39.022Z,3.53
2022-11-25T09:26:09.277Z,3.10
2022-11-25T09:28:37.751Z,3.42
2022-11-25T09:31:09.888Z,3.28
2022-11-25T09:33:38.511Z,3.25
2022-11-25T09:36:07.114Z,3.35
2022-11-25T09:38:37.691Z,3.13
2022-11-25T09:41:42.482Z,2.88
2022-11-25T09:44:37.980Z,3.05
2022-11-25T09:47:15.509Z,3.53
2022-11-25T09:50:01.377Z,3.72
2022-11-25T09:52:38.682Z,3.60
2022-11-25T09:55:10.266Z,3.05
2022-11-25T09:57:59.388Z,3.38
2022-11-25T10:00:37.318Z,3.72
2022-11-25T10:03:14.092Z,3.40
2022-11-25T10:05:47.396Z,3.95
2022-11-25T10:08:20.616Z,3.88
2022-11-25T10:10:51.094Z,3.50
2022-11-25T10:13:26.115Z,3.28
2022-11-25T10:15:58.507Z,3.38
2022-11-25T10:18:32.063Z,3.60
2022-11-25T10:21:00.281Z,3.47
2022-11-25T10:23:33.737Z,3.92
2022-11-25T10:26:11.949Z,3.40
2022-11-25T10:28:47.036Z,3.28
2022-11-25T10:31:18.742Z,3.00
2022-11-25T10:33:48.689Z,3.33
2022-11-25T10:36:19.289Z,3.20
2022-11-25T10:38:56.317Z,2.92
2022-11-25T10:41:28.142Z,2.78
2022-11-25T10:43:58.006Z,2.67
2022-11-25T10:46:56.669Z,3.05
2022-11-25T10:49:29.330Z,2.90
2022-11-25T10:51:58.124Z,3.17
2022-11-25T10:54:28.264Z,3.00
2022-11-25T10:59:31.064Z,3.23
2022-11-25T11:02:20.526Z,3.00
2022-11-25T11:04:58.147Z,2.72
2022-11-25T11:07:27.677Z,3.58
2022-11-25T11:09:55.743Z,3.20
2022-11-25T11:12:25.721Z,3.38
2022-11-25T11:15:12.525Z,3.42
2022-11-25T11:17:40.825Z,3.40
2022-11-25T11:20:22.801Z,2.92
2022-11-25T11:22:56.377Z,3.08
2022-11-25T11:25:33.494Z,3.70
2022-11-25T11:28:02.620Z,3.35
2022-11-25T11:30:33.956Z,3.45
2022-11-25T11:33:05.683Z,3.55
2022-11-25T11:35:47.741Z,3.50
2022-11-25T11:38:27.516Z,4.90
2022-11-25T11:43:54.549Z,3.60
2022-11-25T11:46:32.490Z,4.03
2022-11-25T11:49:15.224Z,4.13
2022-11-25T11:51:52.141Z,4.00
2022-11-25T11:54:32.493Z,3.50
2022-11-25T11:57:03.683Z,3.63
2022-11-25T11:59:48.970Z,3.97
2022-11-25T12:02:25.558Z,3.67
2022-11-25T12:05:01.253Z,3.90
2022-11-25T12:07:35.586Z,4.10
2022-11-25T12:10:10.341Z,3.72
2022-11-25T12:12:41.916Z,3.95
2022-11-25T12:15:20.260Z,3.97
2022-11-25T12:17:54.234Z,3.47
2022-11-25T12:20:34.173Z,3.95
2022-11-25T12:23:06.988Z,4.18
2022-11-25T12:25:38.251Z,4.18
2022-11-25T12:28:11.323Z,3.90
2022-11-25T12:30:52.195Z,4.03
2022-11-25T12:33:27.141Z,4.35
2022-11-25T12:36:03.471Z,4.55
2022-11-25T12:38:39.283Z,4.65
2022-11-25T12:41:18.886Z,4.53
2022-11-25T12:43:50.672Z,3.92
2022-11-25T12:46:29.699Z,3.92
2022-11-25T12:49:00.016Z,4.13
2022-11-25T12:51:45.269Z,4.55
2022-11-25T12:54:25.872Z,5.18
2022-11-25T12:57:20.332Z,4.80
2022-11-25T13:00:33.289Z,4.45
2022-11-25T13:03:20.270Z,5.07
2022-11-25T13:06:30.925Z,5.13
2022-11-25T13:09:05.633Z,5.50
2022-11-25T13:11:55.732Z,4.95
2022-11-25T13:16:57.397Z,5.68
2022-11-25T13:19:26.948Z,6.80
2022-11-25T13:22:02.788Z,5.15
2022-11-25T13:24:35.686Z,5.70
2022-11-25T13:27:05.281Z,5.63
2022-11-25T13:30:04.202Z,5.55
2022-11-25T13:32:34.724Z,5.68
2022-11-25T13:35:35.068Z,4.68
2022-11-25T13:38:22.764Z,5.05
2022-11-25T13:40:58.844Z,5.32
2022-11-25T13:43:26.878Z,5.07
2022-11-25T13:45:56.326Z,5.65
2022-11-25T13:48:26.849Z,4.10
2022-11-25T13:51:18.118Z,5.95
2022-11-25T13:53:54.403Z,4.72
2022-11-25T13:56:29.454Z,5.65
2022-11-25T13:59:21.571Z,4.90
2022-11-25T14:01:55.762Z,5.43
2022-11-25T14:04:41.593Z,5.50
2022-11-25T14:07:24.313Z,5.45
2022-11-25T14:10:14.117Z,4.72
2022-11-25T14:13:03.059Z,5.57
2022-11-25T14:15:39.396Z,6.40
2022-11-25T14:19:12.443Z,5.07
2022-11-25T14:21:45.401Z,5.70
2022-11-25T14:24:28.791Z,5.38
2022-11-25T14:26:59.459Z,5.15
2022-11-25T14:29:31.494Z,6.03
2022-11-25T14:32:03.666Z,5.90
2022-11-25T14:34:35.421Z,5.72
2022-11-25T14:37:13.594Z,5.47
2022-11-25T14:39:50.278Z,6.32
2022-11-25T14:42:22.292Z,5.15
2022-11-25T14:44:51.840Z,6.20
2022-11-25T14:47:23.776Z,4.45
2022-11-25T14:52:43.887Z,6.40
2022-11-25T14:55:13.071Z,6.63
2022-11-25T14:57:46.076Z,5.18
2022-11-25T15:00:16.720Z,6.10
2022-11-25T15:02:57.383Z,6.43
2022-11-25T15:05:27.387Z,6.25
2022-11-25T15:08:00.310Z,6.35
2022-11-25T15:10:39.487Z,5.75
2022-11-25T15:13:15.131Z,6.25
2022-11-25T15:15:46.652Z,6.15
2022-11-25T15:18:20.533Z,6.28
2022-11-25T15:20:51.044Z,5.30
2022-11-25T15:23:27.955Z,6.28
2022-11-25T15:25:57.777Z,6.63
2022-11-25T15:28:27.052Z,6.80
2022-11-25T15:30:59.303Z,6.20
2022-11-25T15:33:28.811Z,5.43
2022-11-25T15:35:57.164Z,6.85
2022-11-25T15:38:42.111Z,6.00
2022-11-25T15:41:33.185Z,6.03
2022-11-25T15:44:05.694Z,6.78
2022-11-25T15:46:36.673Z,6.13
2022-11-25T15:49:08.743Z,6.50
2022-11-25T15:51:42.496Z,5.88
2022-11-25T15:54:20.484Z,6.38
2022-11-25T15:56:50.653Z,6.57
2022-11-25T16:02:54.762Z,5.43
2022-11-25T16:05:38.602Z,6.47
2022-11-25T16:08:29.937Z,7.13
2022-11-25T16:11:00.554Z,5.70
2022-11-25T16:13:30.553Z,6.03
2022-11-25T16:16:01.327Z,7.90
2022-11-25T16:18:40.792Z,8.05
2022-11-25T16:21:12.778Z,7.32
2022-11-25T16:23:45.112Z,7.35
2022-11-25T16:26:18.181Z,7.63
2022-11-25T16:28:54.271Z,7.55
2022-11-25T16:31:22.412Z,7.38
2022-11-25T16:33:52.033Z,7.78
2022-11-25T16:36:19.826Z,7.30
2022-11-25T16:38:53.009Z,8.38
2022-11-25T16:41:23.627Z,7.72
2022-11-25T16:43:51.557Z,6.57
2022-11-25T16:46:21.170Z,7.47
2022-11-25T16:48:49.102Z,7.60
2022-11-25T16:51:20.840Z,7.40
2022-11-25T16:53:49.265Z,7.45
2022-11-25T16:56:22.480Z,6.43
2022-11-25T16:58:50.284Z,7.30
2022-11-25T17:01:27.590Z,8.32
2022-11-25T17:03:55.467Z,6.93
2022-11-25T17:06:27.273Z,7.63
2022-11-25T17:08:55.397Z,7.35
2022-11-25T17:11:29.319Z,7.63
2022-11-25T17:13:59.521Z,7.38
2022-11-25T17:18:58.525Z,7.30
2022-11-25T17:21:28.961Z,8.60
2022-11-25T17:24:01.155Z,9.02
2022-11-25T17:26:37.002Z,9.10
2022-11-25T17:29:07.595Z,8.93
2022-11-25T17:31:38.645Z,8.65
2022-11-25T17:34:06.708Z,8.32
2022-11-25T17:36:35.885Z,7.90
2022-11-25T17:39:03.845Z,8.45
2022-11-25T17:41:36.746Z,8.75
2022-11-25T17:44:07.449Z,8.05
2022-11-25T17:46:35.285Z,8.43
2022-11-25T17:49:03.133Z,8.77
2022-11-25T17:51:30.957Z,7.45
2022-11-25T17:54:00.107Z,8.73
2022-11-25T17:56:32.384Z,8.57
2022-11-25T17:59:03.806Z,9.48
2022-11-25T18:01:32.033Z,8.13
2022-11-25T18:03:59.997Z,8.57
2022-11-25T18:06:27.876Z,9.23
2022-11-25T18:08:55.688Z,8.25
2022-11-25T18:11:25.092Z,9.48
2022-11-25T18:13:53.009Z,9.20
2022-11-25T18:16:23.970Z,9.80
2022-11-25T18:18:51.824Z,8.98
2022-11-25T18:21:20.036Z,8.75
2022-11-25T18:23:47.885Z,9.45
2022-11-25T18:26:15.851Z,9.18
2022-11-25T18:28:45.449Z,9.50
2022-11-25T18:31:13.974Z,10.30
2022-11-25T18:33:41.880Z,9.80
2022-11-25T18:36:14.177Z,9.98
2022-11-25T18:38:42.105Z,8.50
2022-11-25T18:41:21.312Z,9.10
2022-11-25T18:43:51.717Z,9.73
2022-11-25T18:46:19.719Z,9.00
2022-11-25T18:48:47.588Z,8.55
2022-11-25T18:51:16.095Z,10.15
2022-11-25T18:53:43.896Z,8.25
2022-11-25T18:56:17.731Z,8.13
2022-11-25T18:58:49.914Z,8.65
2022-11-25T19:01:23.720Z,7.45
2022-11-25T19:03:53.824Z,7.88
2022-11-25T19:06:22.241Z,8.55
2022-11-25T19:08:52.417Z,9.18
2022-11-25T19:13:53.142Z,8.20
2022-11-25T19:16:23.720Z,9.68
2022-11-25T19:18:51.664Z,9.30
2022-11-25T19:21:22.032Z,9.05
2022-11-25T19:23:49.916Z,8.63
2022-11-25T19:26:23.116Z,9.35
2022-11-25T19:28:55.956Z,9.55
2022-11-25T19:31:25.427Z,9.02
2022-11-25T19:33:53.314Z,9.10
2022-11-25T19:36:25.567Z,9.23
2022-11-25T19:38:54.033Z,11.20
2022-11-25T19:41:22.118Z,11.20
2022-11-25T19:43:50.000Z,13.02
2022-11-25T19:46:30.136Z,11.50
2022-11-25T19:49:06.546Z,10.75
2022-11-25T19:51:36.073Z,10.63
2022-11-25T19:54:03.875Z,9.80
2022-11-25T19:56:31.652Z,11.52
2022-11-25T19:58:59.436Z,11.40
2022-11-25T20:01:34.698Z,10.82
2022-11-25T20:04:03.733Z,10.88
2022-11-25T20:06:31.695Z,11.55
2022-11-25T20:09:06.463Z,10.20
2022-11-25T20:11:36.825Z,10.60
2022-11-25T20:14:05.067Z,12.32
2022-11-25T20:16:37.121Z,11.82
2022-11-25T20:19:07.015Z,11.60
2022-11-25T20:21:38.052Z,10.73
2022-11-25T20:24:13.077Z,11.02
2022-11-25T20:26:45.919Z,11.02
2022-11-25T20:29:16.921Z,10.80
2022-11-25T20:31:46.633Z,9.77
2022-11-25T20:34:14.649Z,10.27
2022-11-25T20:36:44.089Z,9.85
2022-11-25T20:39:18.384Z,10.07
2022-11-25T20:41:50.626Z,11.52
2022-11-25T20:44:19.885Z,12.10
2022-11-25T20:46:49.260Z,12.57
2022-11-25T20:49:22.962Z,11.90
2022-11-25T20:51:50.957Z,12.18
2022-11-25T20:54:18.840Z,11.57
2022-11-25T20:56:46.723Z,10.73
2022-11-25T20:59:21.665Z,11.23
2022-11-25T21:01:51.530Z,11.32
2022-11-25T21:04:19.543Z,11.80
2022-11-25T21:06:47.742Z,10.52
2022-11-25T21:09:20.169Z,11.20
2022-11-25T21:11:50.297Z,12.05
2022-11-25T21:14:20.396Z,12.05
2022-11-25T21:16:48.659Z,12.00
2022-11-25T21:19:17.936Z,12.63
2022-11-25T21:21:47.908Z,12.75
2022-11-25T21:24:25.620Z,12.15
2022-11-25T21:26:53.995Z,11.73
2022-11-25T21:29:22.011Z,11.25
2022-11-25T21:31:50.002Z,11.02
2022-11-25T21:34:19.952Z,10.25
2022-11-25T21:36:50.665Z,12.02
2022-11-25T21:39:29.046Z,11.50
2022-11-25T21:41:59.457Z,12.68
2022-11-25T21:44:31.631Z,12.15
2022-11-25T21:46:59.577Z,11.57
2022-11-25T21:49:29.021Z,12.25
2022-11-25T21:51:56.855Z,12.27
2022-11-25T21:54:24.698Z,11.82
2022-11-25T21:56:53.080Z,12.30
2022-11-25T21:59:21.752Z,11.95
2022-11-25T22:01:49.988Z,12.05
2022-11-25T22:04:20.476Z,11.98
2022-11-25T22:06:51.027Z,12.13
2022-11-25T22:09:19.569Z,11.55
2022-11-25T22:11:50.306Z,11.45
2022-11-25T22:14:27.679Z,11.07
2022-11-25T22:16:56.356Z,12.10
2022-11-25T22:19:27.169Z,12.00
2022-11-25T22:21:57.017Z,11.07
2022-11-25T22:24:24.851Z,11.55
2022-11-25T22:26:57.670Z,11.02
2022-11-25T22:29:33.254Z,11.10
2022-11-25T22:32:01.133Z,11.02
2022-11-25T22:34:29.069Z,10.63
2022-11-25T22:36:58.521Z,11.10
2022-11-25T22:39:27.698Z,12.05
2022-11-25T22:41:57.612Z,11.50
2022-11-25T22:44:30.488Z,10.32
2022-11-25T22:46:58.469Z,10.75
2022-11-25T22:49:40.375Z,10.63
2022-11-25T22:52:18.428Z,11.05
2022-11-25T22:54:46.275Z,10.65
2022-11-25T22:57:14.134Z,9.57
2022-11-25T22:59:42.050Z,10.70
2022-11-25T23:02:16.510Z,10.10
2022-11-25T23:04:54.742Z,11.10
2022-11-25T23:07:24.939Z,10.02
2022-11-25T23:09:53.415Z,8.68
2022-11-25T23:12:21.519Z,8.98
2022-11-25T23:14:49.308Z,8.88
2022-11-25T23:17:20.386Z,9.50
2022-11-25T23:19:48.379Z,8.93
2022-11-25T23:22:16.427Z,9.52
2022-11-25T23:24:48.241Z,10.57
2022-11-25T23:27:16.979Z,10.60
2022-11-25T23:29:45.113Z,10.73
2022-11-25T23:32:18.861Z,11.95
2022-11-25T23:34:47.316Z,12.25
2022-11-25T23:37:15.284Z,10.70
2022-11-25T23:39:43.176Z,11.20
2022-11-25T23:42:17.993Z,10.32
2022-11-25T23:44:46.306Z,10.45
2022-11-25T23:47:19.601Z,9.65
2022-11-25T23:49:50.057Z,9.75
2022-11-25T23:52:21.085Z,12.43
2022-11-25T23:54:50.791Z,13.50
2022-11-25T23:57:22.448Z,13.50
2022-11-25T23:59:51.455Z,10.90
